Time;durP1;ratioP1;P1;durP2;ratioP2;P2;SDS_P1;SDS_P2;PMS_P1;PMS_P2;Temp;Humidity;BMP_temperature;BMP_pressure;BME280_temperature;BME280_humidity;BME280_pressure;Samples;Min_cycle;Max_cycle;Signal;HPM_P1;HPM_P2
2022/05/15 00:02:18;;;;;;;1999.90;999.90;;;;;;;13.82;100.00;95392.31;5115086;28;20175;-52
2022/05/15 00:04:43;;;;;;;1999.90;999.90;;;;;;;13.77;100.00;95393.56;5096547;28;20188;-49
2022/05/15 00:07:08;;;;;;;1999.90;999.90;;;;;;;13.72;100.00;95383.09;5096678;28;20202;-51
2022/05/15 00:09:34;;;;;;;1999.90;999.90;;;;;;;13.71;100.00;95384.31;5096567;28;20229;-49
2022/05/15 00:12:00;;;;;;;1999.90;999.90;;;;;;;13.69;100.00;95380.44;5096522;28;20201;-52
2022/05/15 00:14:25;;;;;;;1999.90;999.90;;;;;;;13.59;100.00;95373.97;5096130;28;20205;-60
2022/05/15 00:16:51;;;;;;;1999.90;999.90;;;;;;;13.50;100.00;95372.97;5096274;28;20210;-66
2022/05/15 00:19:16;;;;;;;1999.90;999.90;;;;;;;13.46;100.00;95369.50;5112991;28;20194;-65
2022/05/15 00:21:41;;;;;;;1999.90;999.90;;;;;;;13.39;100.00;95370.44;5096295;28;20214;-65
2022/05/15 00:24:07;;;;;;;1999.90;999.90;;;;;;;13.37;100.00;95356.38;5096342;28;20188;-65
2022/05/15 00:26:33;;;;;;;1999.90;999.90;;;;;;;13.35;100.00;95367.00;5096147;28;20235;-65
2022/05/15 00:28:59;;;;;;;1999.90;999.90;;;;;;;13.30;100.00;95372.97;5095913;28;20195;-65
2022/05/15 00:31:24;;;;;;;1999.90;999.90;;;;;;;13.28;100.00;95362.41;5096087;28;20228;-52
2022/05/15 00:33:51;;;;;;;1999.90;999.90;;;;;;;13.30;100.00;95362.00;5096136;28;20244;-65
2022/05/15 00:36:17;;;;;;;1999.90;999.90;;;;;;;13.25;100.00;95360.50;5096067;28;20195;-58
2022/05/15 00:38:42;;;;;;;1999.90;999.90;;;;;;;13.23;100.00;95356.66;5095974;28;20188;-58
2022/05/15 00:41:08;;;;;;;1999.90;999.90;;;;;;;13.17;100.00;95361.06;5096171;28;20194;-58
2022/05/15 00:43:44;;;;;;;1999.90;999.90;;;;;;;13.08;100.00;95360.84;5095996;28;20187;-58
2022/05/15 00:46:23;;;;;;;1999.90;999.90;;;;;;;13.06;100.00;95355.00;5096198;28;20195;-58
2022/05/15 00:48:51;;;;;;;1999.90;999.90;;;;;;;12.99;100.00;95346.91;5096182;28;20182;-58
2022/05/15 00:51:19;;;;;;;1999.90;999.90;;;;;;;13.01;100.00;95347.28;5095712;28;20176;-59
2022/05/15 00:53:48;;;;;;;1999.90;999.90;;;;;;;12.89;100.00;95348.63;5095504;28;20275;-71
2022/05/15 00:56:15;;;;;;;1999.90;999.90;;;;;;;12.89;100.00;95342.34;5096011;28;20180;-69
2022/05/15 00:58:48;;;;;;;1999.90;999.90;;;;;;;12.88;100.00;95351.78;5095756;28;20262;-71
2022/05/15 01:01:14;;;;;;;1999.90;999.90;;;;;;;12.90;100.00;95344.69;5099104;28;20172;-71
2022/05/15 01:03:42;;;;;;;1999.90;999.90;;;;;;;12.90;100.00;95341.19;5099222;28;20180;-72
2022/05/15 01:06:08;;;;;;;1999.90;999.90;;;;;;;12.91;100.00;95339.97;5099112;28;20210;-75
2022/05/15 01:08:33;;;;;;;1999.90;999.90;;;;;;;12.92;100.00;95336.03;5099248;28;20179;-64
2022/05/15 01:11:05;;;;;;;1999.90;999.90;;;;;;;12.87;100.00;95333.78;5099080;28;20183;-59
2022/05/15 01:13:34;;;;;;;1999.90;999.90;;;;;;;12.80;100.00;95339.41;5099040;28;20199;-59
2022/05/15 01:16:00;;;;;;;1999.90;999.90;;;;;;;12.77;100.00;95340.22;5099381;28;20187;-59
2022/05/15 01:18:28;;;;;;;1999.90;999.90;;;;;;;12.75;100.00;95337.16;5098987;28;20207;-59
2022/05/15 01:20:56;;;;;;;1999.90;999.90;;;;;;;12.71;100.00;95334.44;5099270;28;20186;-59
2022/05/15 01:23:21;;;;;;;1999.90;999.90;;;;;;;12.70;100.00;95340.34;5099075;28;20296;-59
2022/05/15 01:25:47;;;;;;;1999.90;999.90;;;;;;;12.68;100.00;95338.03;5098972;28;20183;-59
2022/05/15 01:28:23;;;;;;;1999.90;999.90;;;;;;;12.68;100.00;95342.75;5099127;28;20215;-58
2022/05/15 01:30:52;;;;;;;1999.90;999.90;;;;;;;12.63;100.00;95340.47;5098902;28;20187;-58
2022/05/15 01:33:18;;;;;;;1999.90;999.90;;;;;;;12.64;100.00;95342.03;5098772;28;20190;-60
2022/05/15 01:35:43;;;;;;;1999.90;999.90;;;;;;;12.62;100.00;95341.66;5098599;28;20183;-59
2022/05/15 01:38:10;;;;;;;1999.90;999.90;;;;;;;12.54;100.00;95351.94;5098716;28;20188;-58
2022/05/15 01:40:36;;;;;;;1999.90;999.90;;;;;;;12.52;100.00;95353.56;5098642;28;20183;-58
2022/05/15 01:43:03;;;;;;;1999.90;999.90;;;;;;;12.49;100.00;95346.16;5098748;28;20199;-59
2022/05/15 01:45:28;;;;;;;1999.90;999.90;;;;;;;12.44;100.00;95328.28;5098296;28;20186;-58
2022/05/15 01:47:54;;;;;;;1999.90;999.90;;;;;;;12.41;100.00;95336.53;5098528;28;20208;-51
2022/05/15 01:50:19;;;;;;;1999.90;999.90;;;;;;;12.37;100.00;95344.81;5098455;28;20187;-49
2022/05/15 01:52:45;;;;;;;1999.90;999.90;;;;;;;12.34;100.00;95333.91;5098641;28;20188;-52
2022/05/15 01:55:12;;;;;;;1999.90;999.90;;;;;;;12.26;100.00;95327.78;5098223;28;20198;-53
2022/05/15 01:57:37;;;;;;;1999.90;999.90;;;;;;;12.24;100.00;95329.38;5098287;28;20194;-49
2022/05/15 02:00:06;;;;;;;1999.90;999.90;;;;;;;12.20;100.00;95328.66;5098610;28;20184;-53
2022/05/15 02:02:32;;;;;;;1999.90;999.90;;;;;;;12.14;100.00;95325.63;5098487;28;20187;-53
2022/05/15 02:04:57;;;;;;;1999.90;999.90;;;;;;;12.12;100.00;95321.72;5097909;28;20191;-71
2022/05/15 02:07:23;;;;;;;1999.90;999.90;;;;;;;12.07;100.00;95314.00;5098849;28;20212;-66
2022/05/15 02:09:48;;;;;;;1999.90;999.90;;;;;;;12.05;100.00;95313.63;5098223;28;20194;-66
2022/05/15 02:12:13;;;;;;;1999.90;999.90;;;;;;;12.04;100.00;95309.34;5097509;28;20187;-68
2022/05/15 02:14:39;;;;;;;1999.90;999.90;;;;;;;12.06;100.00;95312.47;5098651;28;20190;-66
2022/05/15 02:17:04;;;;;;;1999.90;999.90;;;;;;;12.01;100.00;95304.69;5115627;28;20218;-67
2022/05/15 02:19:30;;;;;;;1999.90;999.90;;;;;;;11.99;100.00;95307.84;5098122;28;20213;-66
2022/05/15 02:21:55;;;;;;;1999.90;999.90;;;;;;;11.99;100.00;95307.09;5098144;28;20198;-58
2022/05/15 02:24:20;;;;;;;1999.90;999.90;;;;;;;12.00;100.00;95305.91;5098438;28;20294;-59
2022/05/15 02:26:46;;;;;;;1999.90;999.90;;;;;;;11.94;100.00;95302.06;5097890;28;20210;-69
2022/05/15 02:29:11;;;;;;;1999.90;999.90;;;;;;;11.96;100.00;95302.44;5097929;28;20281;-69
2022/05/15 02:31:37;;;;;;;1999.90;999.90;;;;;;;11.95;100.00;95300.91;5097987;28;20179;-69
2022/05/15 02:34:03;;;;;;;1999.90;999.90;;;;;;;11.91;100.00;95305.66;5097610;28;20182;-70
2022/05/15 02:36:29;;;;;;;1999.90;999.90;;;;;;;11.89;100.00;95297.06;5098020;28;20189;-69
2022/05/15 02:38:55;;;;;;;1999.90;999.90;;;;;;;11.87;100.00;95299.47;5097777;28;20191;-69
2022/05/15 02:41:20;;;;;;;1999.90;999.90;;;;;;;11.82;100.00;95297.16;5097704;28;20191;-59
2022/05/15 02:43:46;;;;;;;1999.90;999.90;;;;;;;11.82;100.00;95294.44;5097724;28;20202;-60
2022/05/15 02:46:11;;;;;;;1999.90;999.90;;;;;;;11.79;100.00;95298.00;5097777;28;20201;-60
2022/05/15 02:51:20;;;;;;;1999.90;999.90;;;;;;;11.69;100.00;95304.41;5116259;28;20186;-60
2022/05/15 02:53:46;;;;;;;1999.90;999.90;;;;;;;11.61;100.00;95308.41;5097875;28;20176;-60
2022/05/15 02:56:15;;;;;;;1999.90;999.90;;;;;;;11.58;100.00;95306.47;5097660;28;20182;-60
2022/05/15 02:58:40;;;;;;;1999.90;999.90;;;;;;;11.59;100.00;95300.59;5097324;28;20187;-60
2022/05/15 03:01:06;;;;;;;1999.90;999.90;;;;;;;11.60;100.00;95301.38;5097973;28;20189;-67
2022/05/15 03:03:31;;;;;;;1999.90;999.90;;;;;;;11.57;100.00;95304.91;5097856;28;20190;-59
2022/05/15 03:05:57;;;;;;;1999.90;999.90;;;;;;;11.52;100.00;95294.44;5097415;28;20174;-60
2022/05/15 03:08:23;;;;;;;1999.90;999.90;;;;;;;11.49;100.00;95295.25;5097306;28;20283;-59
2022/05/15 03:10:48;;;;;;;1999.90;999.90;;;;;;;11.49;100.00;95289.78;5114111;28;20187;-59
2022/05/15 03:13:13;;;;;;;1999.90;999.90;;;;;;;11.44;100.00;95298.47;5097311;28;20183;-59
2022/05/15 03:15:39;;;;;;;1999.90;999.90;;;;;;;11.42;100.00;95300.81;5097166;28;20211;-59
2022/05/15 03:18:05;;;;;;;1999.90;999.90;;;;;;;11.42;100.00;95295.34;5097508;28;20299;-52
2022/05/15 03:20:30;;;;;;;1999.90;999.90;;;;;;;11.44;100.00;95301.19;5097789;28;20177;-59
2022/05/15 03:22:57;;;;;;;1999.90;999.90;;;;;;;11.41;100.00;95299.28;5095988;28;20212;-59
2022/05/15 03:25:24;;;;;;;1999.90;999.90;;;;;;;11.46;100.00;95301.53;5097325;28;20177;-59
2022/05/15 03:27:50;;;;;;;1999.90;999.90;;;;;;;11.47;100.00;95301.13;5097004;28;20214;-58
2022/05/15 03:30:16;;;;;;;1999.90;999.90;;;;;;;11.43;100.00;95296.88;5096817;28;20213;-59
2022/05/15 03:32:42;;;;;;;1999.90;999.90;;;;;;;11.38;100.00;95294.63;5097492;28;20209;-59
2022/05/15 03:35:08;;;;;;;1999.90;999.90;;;;;;;11.42;100.00;95295.34;5097562;28;20216;-61
2022/05/15 03:37:34;;;;;;;1999.90;999.90;;;;;;;11.39;100.00;95290.69;5114757;28;20186;-59
2022/05/15 03:39:59;;;;;;;1999.90;999.90;;;;;;;11.41;100.00;95288.34;5096898;28;20185;-60
2022/05/15 03:42:25;;;;;;;1999.90;999.90;;;;;;;11.40;100.00;95286.81;5096664;28;20186;-60
2022/05/15 03:44:52;;;;;;;1999.90;999.90;;;;;;;11.43;100.00;95292.22;5096729;28;20215;-60
2022/05/15 03:47:17;;;;;;;1999.90;999.90;;;;;;;11.50;100.00;95291.34;5097163;28;20278;-60
2022/05/15 03:49:42;;;;;;;1999.90;999.90;;;;;;;11.69;100.00;95293.47;5096857;28;20250;-60
2022/05/15 03:52:08;;;;;;;1999.90;999.90;;;;;;;11.87;100.00;95289.28;5096506;28;20181;-61
2022/05/15 03:54:33;;;;;;;1999.90;999.90;;;;;;;12.12;100.00;95295.13;5096978;28;20276;-59
2022/05/15 03:56:59;;;;;;;1999.90;999.90;;;;;;;12.39;100.00;95297.84;5096332;28;20195;-60
2022/05/15 03:59:31;;;;;;;1999.90;999.90;;;;;;;12.66;100.00;95301.28;5096977;28;20219;-59
2022/05/15 04:01:57;;;;;;;1999.90;999.90;;;;;;;12.82;100.00;95304.13;5096370;28;20187;-60
2022/05/15 04:04:22;;;;;;;1999.90;999.90;;;;;;;13.07;100.00;95309.94;5096971;28;20190;-60
2022/05/15 04:06:47;;;;;;;1999.90;999.90;;;;;;;13.11;100.00;95316.13;5096921;28;20207;-60
2022/05/15 04:09:13;;;;;;;1999.90;999.90;;;;;;;13.49;100.00;95311.84;5096812;28;20186;-60
2022/05/15 04:11:39;;;;;;;1999.90;999.90;;;;;;;13.86;100.00;95322.41;5096340;28;20188;-60
2022/05/15 04:14:05;;;;;;;1999.90;999.90;;;;;;;14.16;100.00;95330.34;5096225;28;20187;-60
2022/05/15 04:16:31;;;;;;;1999.90;999.90;;;;;;;14.48;100.00;95335.91;5096341;28;20240;-71
2022/05/15 04:18:57;;;;;;;1999.90;999.90;;;;;;;14.63;100.00;95353.59;5096808;28;20175;-71
2022/05/15 04:21:23;;;;;;;1999.90;999.90;;;;;;;15.02;100.00;95345.16;5096636;28;20194;-71
2022/05/15 04:23:49;;;;;;;1999.90;999.90;;;;;;;15.26;100.00;95362.97;5096475;28;20300;-71
2022/05/15 04:26:14;;;;;;;1999.90;999.90;;;;;;;15.30;100.00;95363.63;5096026;28;20218;-71
2022/05/15 04:28:41;;;;;;;1999.90;999.90;;;;;;;15.31;100.00;95372.66;5096159;28;20194;-72
2022/05/15 04:31:07;;;;;;;1999.90;999.90;;;;;;;15.13;100.00;95381.41;5096878;28;20179;-60
2022/05/15 04:33:32;;;;;;;1999.90;999.90;;;;;;;14.93;100.00;95386.22;5096087;28;20203;-61
2022/05/15 04:35:58;;;;;;;1999.90;999.90;;;;;;;15.13;100.00;95381.41;5098910;28;20182;-59
2022/05/15 04:38:23;;;;;;;1999.90;999.90;;;;;;;15.53;100.00;95393.72;5100135;28;20271;-59
2022/05/15 04:40:49;;;;;;;1999.90;999.90;;;;;;;15.75;100.00;95394.69;5099711;28;20270;-60
2022/05/15 04:43:14;;;;;;;1999.90;999.90;;;;;;;16.03;100.00;95410.38;5099426;28;20222;-60
2022/05/15 04:45:40;;;;;;;1999.90;999.90;;;;;;;16.21;100.00;95415.38;5099693;28;20240;-60
2022/05/15 04:48:08;;;;;;;1999.90;999.90;;;;;;;16.36;100.00;95425.53;5099215;28;20207;-61
2022/05/15 04:50:37;;;;;;;1999.90;999.90;;;;;;;16.59;100.00;95430.00;5099467;28;20248;-67
2022/05/15 04:53:02;;;;;;;1999.90;999.90;;;;;;;16.84;100.00;95438.28;5099772;28;20184;-67
2022/05/15 04:55:27;;;;;;;1999.90;999.90;;;;;;;16.88;100.00;95451.94;5099809;28;20198;-67
2022/05/15 04:57:53;;;;;;;1999.90;999.90;;;;;;;17.03;100.00;95442.78;5099803;28;20190;-66
2022/05/15 05:00:18;;;;;;;1999.90;999.90;;;;;;;17.17;100.00;95447.06;5099366;28;20191;-66
2022/05/15 05:02:44;;;;;;;1999.90;999.90;;;;;;;17.32;100.00;95448.13;5099102;28;20196;-67
2022/05/15 05:05:10;;;;;;;1999.90;999.90;;;;;;;17.56;100.00;95463.13;5099437;28;20186;-68
2022/05/15 05:07:35;;;;;;;1999.90;999.90;;;;;;;17.80;100.00;95464.25;5099210;28;20203;-60
2022/05/15 05:10:01;;;;;;;1999.90;999.90;;;;;;;18.07;100.00;95470.03;5099039;28;20232;-60
2022/05/15 05:12:26;;;;;;;1999.90;999.90;;;;;;;18.12;100.00;95474.97;5099264;28;20226;-60
2022/05/15 05:14:52;;;;;;;1999.90;999.90;;;;;;;18.44;100.00;95477.38;5099254;28;20241;-61
2022/05/15 05:17:17;;;;;;;1999.90;999.90;;;;;;;18.78;100.00;95488.31;5099326;28;20204;-60
2022/05/15 05:19:42;;;;;;;1999.90;999.90;;;;;;;18.90;100.00;95495.75;5099831;28;20203;-61
2022/05/15 05:22:09;;;;;;;1999.90;999.90;;;;;;;19.25;100.00;95511.00;5098641;28;20207;-60
2022/05/15 05:24:34;;;;;;;1999.90;999.90;;;;;;;19.66;100.00;95510.50;5099048;28;20188;-61
2022/05/15 05:27:00;;;;;;;1999.90;999.90;;;;;;;19.95;100.00;95521.94;5098973;28;20225;-62
2022/05/15 05:29:25;;;;;;;1999.90;999.90;;;;;;;20.30;100.00;95534.34;5099328;28;20188;-61
2022/05/15 05:31:51;;;;;;;1999.90;999.90;;;;;;;20.75;100.00;95545.38;5098775;28;20184;-61
2022/05/15 05:34:17;;;;;;;1999.90;999.90;;;;;;;20.98;99.59;95547.53;5099280;28;20215;-61
2022/05/15 05:36:43;;;;;;;1999.90;999.90;;;;;;;21.32;97.65;95555.47;5099224;28;20195;-62
2022/05/15 05:39:09;;;;;;;1999.90;999.90;;;;;;;21.34;96.14;95558.53;5098458;28;20208;-62
2022/05/15 05:41:34;;;;;;;1999.90;999.90;;;;;;;22.48;91.11;95560.06;5099096;28;20184;-62
2022/05/15 05:44:00;;;;;;;1999.90;999.90;;;;;;;22.81;90.33;95555.91;5098454;28;20192;-62
2022/05/15 05:46:27;;;;;;;1999.90;999.90;;;;;;;23.37;89.37;95558.44;5097782;28;20179;-63
2022/05/15 05:48:53;;;;;;;1999.90;999.90;;;;;;;23.51;86.86;95562.47;5098465;28;20188;-60
2022/05/15 05:51:18;;;;;;;1999.90;999.90;;;;;;;23.50;83.01;95566.50;5098351;28;20320;-60
2022/05/15 05:53:44;;;;;;;1999.90;999.90;;;;;;;23.53;82.38;95566.28;5098571;28;20199;-60
2022/05/15 05:56:09;;;;;;;1999.90;999.90;;;;;;;23.36;80.40;95567.28;5098271;28;20187;-61
2022/05/15 05:58:36;;;;;;;1999.90;999.90;;;;;;;23.55;81.18;95571.38;5098312;28;20186;-61
2022/05/15 06:01:01;;;;;;;1999.90;999.90;;;;;;;24.45;77.73;95572.97;5098113;28;20191;-60
2022/05/15 06:06:10;;;;;;;1999.90;999.90;;;;;;;24.32;74.32;95580.91;5116717;28;20194;-68
2022/05/15 06:08:35;;;;;;;1999.90;999.90;;;;;;;24.89;73.95;95579.09;5098957;28;20211;-68
2022/05/15 06:11:01;;;;;;;1999.90;999.90;;;;;;;25.22;69.74;95576.63;5098164;28;20194;-67
2022/05/15 06:13:26;;;;;;;1999.90;999.90;;;;;;;24.90;70.36;95577.81;5098650;28;20180;-68
2022/05/15 06:15:53;;;;;;;1999.90;999.90;;;;;;;25.00;70.08;95579.97;5098111;28;20183;-68
2022/05/15 06:18:18;;;;;;;1999.90;999.90;;;;;;;25.51;68.49;95581.22;5097874;28;20201;-64
2022/05/15 06:20:44;;;;;;;1999.90;999.90;;;;;;;26.17;63.61;95578.94;5098093;28;20219;-65
2022/05/15 06:23:09;;;;;;;1999.90;999.90;;;;;;;26.26;61.67;95576.69;5097841;28;20176;-47
2022/05/15 06:25:35;;;;;;;1999.90;999.90;;;;;;;26.72;58.10;95574.38;5098189;28;20213;-62
2022/05/15 06:28:00;;;;;;;1999.90;999.90;;;;;;;26.49;60.70;95569.16;5097653;28;20239;-61
2022/05/15 06:30:26;;;;;;;1999.90;999.90;;;;;;;26.91;59.87;95575.47;5097772;28;20187;-60
2022/05/15 06:32:51;;;;;;;1999.90;999.90;;;;;;;27.06;57.89;95576.00;5097560;28;20218;-59
2022/05/15 06:35:17;;;;;;;1999.90;999.90;;;;;;;26.80;56.26;95580.28;5097940;28;20205;-59
2022/05/15 06:37:42;;;;;;;1999.90;999.90;;;;;;;27.37;54.74;95578.66;5097856;28;20194;-59
2022/05/15 06:40:09;;;;;;;1999.90;999.90;;;;;;;27.22;53.11;95580.94;5097734;28;20180;-47
2022/05/15 06:42:35;;;;;;;1999.90;999.90;;;;;;;27.90;52.29;95584.03;5097653;28;20212;-61
2022/05/15 06:45:01;;;;;;;1999.90;999.90;;;;;;;28.54;46.85;95593.41;5097590;28;20184;-60
2022/05/15 06:47:26;;;;;;;1999.90;999.90;;;;;;;28.07;46.70;95584.78;5114713;28;20280;-59
2022/05/15 06:49:52;;;;;;;1999.90;999.90;;;;;;;28.89;44.87;95590.69;5097552;28;20207;-60
2022/05/15 06:52:18;;;;;;;1999.90;999.90;;;;;;;29.08;43.85;95591.63;5097935;28;20251;-61
2022/05/15 06:54:43;;;;;;;1999.90;999.90;;;;;;;29.40;41.93;95587.09;5097658;28;20176;-60
2022/05/15 06:59:52;;;;;;;1999.90;999.90;;;;;;;29.43;42.14;95583.25;5115986;28;20191;-65
2022/05/15 07:02:18;;;;;;;1999.90;999.90;;;;;;;29.53;40.77;95584.47;5115288;28;20171;-65
2022/05/15 07:04:43;;;;;;;1999.90;999.90;;;;;;;30.22;39.94;95580.03;5097832;28;20194;-65
2022/05/15 07:07:09;;;;;;;1999.90;999.90;;;;;;;30.13;39.47;95577.56;5097153;28;20203;-65
2022/05/15 07:09:35;;;;;;;1999.90;999.90;;;;;;;31.03;38.21;95590.94;5097850;28;20192;-65
2022/05/15 07:12:01;;;;;;;1999.90;999.90;;;;;;;31.47;37.22;95573.41;5097212;28;20188;-65
2022/05/15 07:14:26;;;;;;;1999.90;999.90;;;;;;;31.10;38.59;95579.78;5097656;28;20188;-64
2022/05/15 07:16:52;;;;;;;1999.90;999.90;;;;;;;31.40;37.67;95574.03;5097080;28;20225;-61
2022/05/15 07:19:17;;;;;;;1999.90;999.90;;;;;;;30.67;38.05;95576.19;5097342;28;20180;-62
2022/05/15 07:21:43;;;;;;;1999.90;999.90;;;;;;;31.50;38.01;95571.56;5115076;28;20183;-60
2022/05/15 07:24:08;;;;;;;1999.90;999.90;;;;;;;31.77;36.77;95573.94;5097043;28;20271;-62
2022/05/15 07:26:34;;;;;;;1999.90;999.90;;;;;;;32.31;35.43;95570.75;5096785;28;20214;-63
2022/05/15 07:28:59;;;;;;;1999.90;999.90;;;;;;;31.53;36.10;95571.22;5097561;28;20198;-61
2022/05/15 07:31:25;;;;;;;1999.90;999.90;;;;;;;30.64;37.42;95562.41;5096914;28;20187;-61
2022/05/15 07:33:50;;;;;;;1999.90;999.90;;;;;;;31.83;35.98;95562.56;5097472;28;20188;-61
2022/05/15 07:36:16;;;;;;;1999.90;999.90;;;;;;;32.33;33.85;95565.31;5096631;28;20258;-56
2022/05/15 07:38:42;;;;;;;1999.90;999.90;;;;;;;30.52;35.41;95564.59;5096841;28;20176;-68
2022/05/15 07:41:07;;;;;;;1999.90;999.90;;;;;;;30.63;36.00;95553.19;5096471;28;20184;-71
2022/05/15 07:43:33;;;;;;;1999.90;999.90;;;;;;;30.14;36.35;95564.97;5096741;28;20219;-71
2022/05/15 07:45:58;;;;;;;1999.90;999.90;;;;;;;30.47;36.93;95556.19;5096783;28;20205;-68
2022/05/15 07:48:24;;;;;;;1999.90;999.90;;;;;;;30.67;36.17;95552.88;5096756;28;20203;-69
2022/05/15 07:50:52;;;;;;;1999.90;999.90;;;;;;;30.43;34.25;95555.72;5096919;28;20184;-71
2022/05/15 07:53:17;;;;;;;1999.90;999.90;;;;;;;30.91;34.81;95559.28;5114689;28;20172;-62
2022/05/15 07:55:42;;;;;;;1999.90;999.90;;;;;;;31.16;33.72;95557.13;5096585;28;20244;-58
2022/05/15 07:58:08;;;;;;;1999.90;999.90;;;;;;;31.35;34.24;95555.06;5096793;28;20241;-63
2022/05/15 08:00:33;;;;;;;1999.90;999.90;;;;;;;31.32;35.20;95552.56;5096256;28;20194;-62
2022/05/15 08:03:10;;;;;;;1999.90;999.90;;;;;;;31.02;35.08;95561.16;5096545;28;20219;-64
2022/05/15 08:08:22;;;;;;;1999.90;999.90;;;;;;;31.03;35.37;95548.59;5114501;28;20226;-62
2022/05/15 08:10:48;;;;;;;1999.90;999.90;;;;;;;31.30;34.50;95552.34;5095478;28;20171;-62
2022/05/15 08:13:16;;;;;;;1999.90;999.90;;;;;;;31.78;32.53;95560.56;5096420;28;20193;-62
2022/05/15 08:15:44;;;;;;;1999.90;999.90;;;;;;;32.31;33.09;95553.78;5096366;28;20237;-63
2022/05/15 08:23:44;;;;;;;1999.90;999.90;;;;;;;31.35;33.47;95557.91;5114391;28;20213;-63
2022/05/15 08:26:11;;;;;;;1999.90;999.90;;;;;;;31.45;33.59;95542.09;5096961;28;20180;-62
2022/05/15 08:28:37;;;;;;;1999.90;999.90;;;;;;;31.24;33.91;95549.56;5096000;28;20199;-62
2022/05/15 08:31:04;;;;;;;1999.90;999.90;;;;;;;31.30;32.83;95541.81;5095997;28;20176;-55
2022/05/15 08:33:31;;;;;;;1999.90;999.90;;;;;;;32.35;34.10;95548.56;5095811;28;20211;-57
2022/05/15 08:35:57;;;;;;;1999.90;999.90;;;;;;;32.72;31.70;95545.50;5096505;28;20187;-53
2022/05/15 08:38:22;;;;;;;1999.90;999.90;;;;;;;32.55;32.52;95545.81;5095863;28;20228;-55
2022/05/15 08:41:13;;;;;;;1999.90;999.90;;;;;;;30.25;31.02;95550.81;5095661;28;20254;-54
2022/05/15 08:43:41;;;;;;;1999.90;999.90;;;;;;;30.62;32.55;95550.88;5095803;28;20195;-55
2022/05/15 08:46:20;;;;;;;1999.90;999.90;;;;;;;31.17;30.27;95549.44;5095642;28;20188;-55
2022/05/15 08:48:46;;;;;;;1999.90;999.90;;;;;;;29.96;31.57;95560.81;5095708;28;20286;-70
2022/05/15 08:51:13;;;;;;;1999.90;999.90;;;;;;;30.40;30.85;95562.41;5095763;28;20270;-67
2022/05/15 08:53:41;;;;;;;1999.90;999.90;;;;;;;30.68;31.43;95565.69;5095427;28;20180;-66
2022/05/15 08:56:09;;;;;;;1999.90;999.90;;;;;;;29.68;30.36;95565.16;5096001;28;20193;-66
2022/05/15 08:58:47;;;;;;;1999.90;999.90;;;;;;;30.21;32.52;95561.59;5095642;28;20191;-66
2022/05/15 09:01:17;;;;;;;1999.90;999.90;;;;;;;32.33;29.28;95566.06;5095493;28;20168;-67
2022/05/15 09:03:42;;;;;;;1999.90;999.90;;;;;;;31.43;29.99;95558.81;5095843;28;20191;-70
2022/05/15 09:06:23;;;;;;;1999.90;999.90;;;;;;;31.92;30.06;95557.28;5095688;28;20188;-70
2022/05/15 09:09:07;;;;;;;1999.90;999.90;;;;;;;32.03;29.38;95556.31;5096266;28;20194;-57
2022/05/15 09:11:48;;;;;;;1999.90;999.90;;;;;;;30.84;29.44;95556.28;5095491;28;20191;-72
2022/05/15 09:14:39;;;;;;;1999.90;999.90;;;;;;;30.85;28.58;95558.56;5095902;28;20184;-74
2022/05/15 09:17:21;;;;;;;1999.90;999.90;;;;;;;30.94;28.77;95560.25;5095903;28;20298;-74
2022/05/15 09:19:54;;;;;;;1999.90;999.90;;;;;;;31.16;25.75;95557.13;5095472;28;20188;-72
2022/05/15 09:22:22;;;;;;;1999.90;999.90;;;;;;;31.30;27.64;95564.41;5098768;28;20211;-72
2022/05/15 09:24:51;;;;;;;1999.90;999.90;;;;;;;31.52;30.13;95549.16;5098613;28;20191;-73
2022/05/15 09:27:26;;;;;;;1999.90;999.90;;;;;;;30.53;33.15;95548.44;5099229;28;20254;-58
2022/05/15 09:29:52;;;;;;;1999.90;999.90;;;;;;;30.42;33.66;95551.41;5099001;28;20232;-62
2022/05/15 09:32:42;;;;;;;1999.90;999.90;;;;;;;30.15;35.11;95558.06;5081983;28;20287;-60
2022/05/15 09:35:46;;;;;;;1999.90;999.90;;;;;;;30.33;34.71;95551.72;5098798;28;20188;-59
2022/05/15 09:38:29;;;;;;;1999.90;999.90;;;;;;;30.24;35.64;95560.56;5098338;28;20286;-61
2022/05/15 09:43:58;;;;;;;1999.90;999.90;;;;;;;31.18;35.17;95540.44;5116984;28;20299;-75
2022/05/15 09:46:26;;;;;;;1999.90;999.90;;;;;;;31.06;35.33;95551.09;5099019;28;20232;-58
2022/05/15 09:48:56;;;;;;;1999.90;999.90;;;;;;;30.35;36.33;95554.81;5098406;28;20240;-58
2022/05/15 09:51:45;;;;;;;1999.90;999.90;;;;;;;30.82;36.37;95547.59;5098555;28;20188;-58
2022/05/15 09:54:29;;;;;;;1999.90;999.90;;;;;;;32.09;35.25;95537.19;5097833;28;20226;-60
2022/05/15 09:57:16;;;;;;;1999.90;999.90;;;;;;;30.60;36.28;95545.03;5098442;28;20186;-57
2022/05/15 09:59:43;;;;;;;1999.90;999.90;;;;;;;31.77;35.66;95545.69;5098013;28;20260;-57
2022/05/15 10:02:21;;;;;;;1999.90;999.90;;;;;;;30.96;35.78;95543.56;5098512;28;20183;-74
2022/05/15 10:04:49;;;;;;;1999.90;999.90;;;;;;;29.87;37.91;95547.06;5098120;28;20183;-58
2022/05/15 10:07:30;;;;;;;1999.90;999.90;;;;;;;30.85;36.74;95536.00;5114965;28;20260;-58
2022/05/15 10:10:29;;;;;;;1999.90;999.90;;;;;;;29.36;37.81;95561.28;5098108;28;20205;-58
2022/05/15 10:12:59;;;;;;;1999.90;999.90;;;;;;;29.67;38.92;95541.09;5098317;28;20300;-58
2022/05/15 10:15:32;;;;;;;1999.90;999.90;;;;;;;29.27;38.27;95542.66;5098710;28;20172;-57
2022/05/15 10:18:03;;;;;;;1999.90;999.90;;;;;;;30.38;36.88;95526.28;5097646;28;20204;-60
2022/05/15 10:20:34;;;;;;;1999.90;999.90;;;;;;;30.74;36.01;95536.13;5098048;28;20175;-59
2022/05/15 10:23:06;;;;;;;1999.90;999.90;;;;;;;30.91;36.64;95527.44;5098439;28;20266;-59
2022/05/15 10:25:41;;;;;;;1999.90;999.90;;;;;;;29.62;37.46;95545.50;5098650;28;20266;-57
2022/05/15 10:28:30;;;;;;;1999.90;999.90;;;;;;;29.52;37.88;95520.97;5098068;28;20256;-57
2022/05/15 10:31:46;;;;;;;1999.90;999.90;;;;;;;30.39;37.79;95521.44;5098170;28;20193;-55
2022/05/15 10:34:21;;;;;;;1999.90;999.90;;;;;;;29.98;36.95;95520.84;5036347;28;20189;-56
2022/05/15 10:36:56;;;;;;;1999.90;999.90;;;;;;;30.32;36.51;95519.19;5089251;28;20195;-55
2022/05/15 10:39:56;;;;;;;1999.90;999.90;;;;;;;29.97;36.79;95520.06;5098009;28;20183;-56
2022/05/15 10:42:54;;;;;;;1999.90;999.90;;;;;;;30.86;35.57;95519.84;5097687;28;20179;-57
2022/05/15 10:45:30;;;;;;;1999.90;999.90;;;;;;;30.40;36.61;95518.09;5115844;28;20214;-56
2022/05/15 10:48:07;;;;;;;1999.90;999.90;;;;;;;30.19;35.97;95513.47;5097982;28;20244;-57
2022/05/15 10:50:57;;;;;;;1999.90;999.90;;;;;;;28.09;40.29;95520.41;5097959;28;20184;-57
2022/05/15 11:00:00;;;;;;;1999.90;999.90;;;;;;;30.26;36.90;95502.34;5116173;28;20193;-76
2022/05/15 11:02:47;;;;;;;1999.90;999.90;;;;;;;28.98;38.48;95512.38;5097453;28;20191;-65
2022/05/15 11:05:30;;;;;;;1999.90;999.90;;;;;;;29.40;38.05;95499.81;5097073;28;20229;-68
2022/05/15 11:08:04;;;;;;;1999.90;999.90;;;;;;;29.74;37.40;95492.63;5097623;28;20195;-67
2022/05/15 11:10:43;;;;;;;1999.90;999.90;;;;;;;28.62;38.70;95498.78;5097720;28;20183;-68
2022/05/15 11:13:19;;;;;;;1999.90;999.90;;;;;;;28.59;38.86;95500.59;5097046;28;20213;-65
2022/05/15 11:16:06;;;;;;;1999.90;999.90;;;;;;;29.21;39.32;95488.44;5097054;28;20180;-58
2022/05/15 11:18:53;;;;;;;1999.90;999.90;;;;;;;28.98;38.92;95483.50;5097616;28;20191;-54
2022/05/15 11:21:31;;;;;;;1999.90;999.90;;;;;;;29.54;37.78;95490.25;5096853;28;20179;-55
2022/05/15 11:24:32;;;;;;;1999.90;999.90;;;;;;;28.07;39.61;95482.88;5096793;28;20197;-55